KDRI/DRI METAR and TAF weather

Enter ICAO airport designator
Station Type Date Time Source
KDRI METAR 2021/07/13 13:55 UTC NOAA

KDRI 131355Z AUTO 00000KT 5SM BR CLR 26/25 A3020 RMK AO2 T02580250


Station Type Date Time Source
KDRI Decoded METAR 2021/07/13 13:55 UTC NOAA

De Ridder, Beauregard Parish Airport, LA, United States (KDRI) 30-49-54N 093-20-23W
Jul 13, 2021 - 09:55 AM EDT / 2021.07.13 1355 UTC
Wind: Calm:0
Visibility: 5 mile(s):0
Sky conditions: clear
Weather: mist
Temperature: 78.4 F (25.8 C)
Dew Point: 77.0 F (25.0 C)
Relative Humidity: 95%
Pressure (altimeter): 30.2 in. Hg (1022 hPa)
ob: KDRI 131355Z AUTO 00000KT 5SM BR CLR 26/25 A3020 RMK AO2 T02580250
cycle: 14

Station Type Date Time Source
KDRI TAF UTC NOAA

Error!

Example: see airport list